Billings, MT (59101)

5:36 PM MDT on August 31, 2016 (GMT -0600)
Jupiter Sulphur | | Change Station

Elev 3114 ft 45.78 °N, 108.49 °W | Updated 3 minutes ago

Partly Cloudy
Partly Cloudy
98.1 °F
Feels Like 93 °F
N
7.0
Wind Variable Wind from East
Gusts 13.0 mph

Today
High -- | Low -- °F
--% Chance of Precip.
Yesterday
High -- | Low -- °F
Precip. -- in
Pressure 29.78 in
Visibility 10.0 miles
Clouds Few 11000 ft
Few 20000 ft
Heat Index 93 °F
Dew Point 39 °F
Humidity 13%
Rainfall 0.00 in
Snow Depth Not available.
6:34 AM 7:52 PM
Waning Crescent, 0% visible
METAR KBIL 312253Z 13013G18KT 10SM FEW110 FEW200 36/M01 A2991 RMK AO2 SLP083 T03611011
Pressure 29.78 in
Visibility 10.0 miles
Clouds Few 11000 ft
Few 20000 ft
Heat Index 93 °F
Dew Point 39 °F
Humidity 13%
Rainfall 0.00 in
Snow Depth Not available.
6:34 AM 7:52 PM
Waning Crescent, 0% visible
METAR KBIL 312253Z 13013G18KT 10SM FEW110 FEW200 36/M01 A2991 RMK AO2 SLP083 T03611011

10-Day Weather Forecast

Almanac

Astronomy

Aug. 31, 2016 Rise Set
Actual Time
Civil Twilight
Nautical Twilight
Astronomical Twilight
Moon
Length of Visible Light
Length of Day
Tomorrow will be .
, % of the Moon is Illuminated

Today's Extremes

State Highs State Lows

Community

WunderPhotos

Upload Photos

1,936,215 photos uploaded!

WunderBlog® & News

Nearby

Air Quality

  Air Quality AQ Index Pollutant
Not available.

Snow Depth

Station Depth Elevation

Earthquake Activity

City Distance Mag. Time & Date
Minimum magnitude displayed is 2.5.

Coastal Water Temperatures

Place Temperature

Stations

Nearby Weather Stations

Station Location Temp. Windchill Dew Point Humidity Wind Precip. Elev Updated Type
                   

Watches & Warnings

There are currently no watches in effect.